Date,TemperatureHighF,TemperatureAvgF,TemperatureLowF,DewpointHighF,DewpointAvgF,DewpointLowF,HumidityHigh,HumidityAvg,HumidityLow,PressureMaxIn,PressureMinIn,WindSpeedMaxMPH,WindSpeedAvgMPH,GustSpeedMaxMPH,PrecipitationSumIn
2012-4-12,56.0,50.7,44.0,55.0,46.2,35.0,97,86,57,29.96,29.50,12,6,25,0.69
2012-4-13,64.0,53.5,49.0,51.0,47.7,43.0,97,83,47,29.70,29.50,9,5,18,0.52
2012-4-14,72.0,56.2,43.0,61.0,50.0,-99.9,97,82,65,29.69,29.19,13,5,26,0.02
2012-4-15,53.0,48.5,43.0,50.0,45.3,39.0,95,89,78,29.80,29.13,19,9,35,0.02
2012-4-16,55.0,45.2,37.0,41.0,37.3,34.0,91,75,56,30.18,29.82,9,4,15,0.01
2012-4-17,73.0,53.4,37.0,47.0,40.2,35.0,94,67,25,30.14,29.88,10,4,20,0.01
2012-4-18,69.0,57.4,41.0,50.0,44.9,38.0,93,65,43,29.97,29.71,10,2,16,0.01
2012-4-19,59.0,52.1,46.0,54.0,46.9,42.0,96,83,74,29.96,29.68,11,5,20,0.19
2012-4-20,63.0,51.0,38.0,43.0,38.7,34.0,96,67,35,30.12,29.93,6,3,13,0.19
2012-4-21,69.0,56.8,43.0,46.0,36.2,-99.9,83,51,27,30.08,29.84,11,5,28,0.00
2012-4-22,65.0,52.2,37.0,35.0,30.4,25.0,83,48,23,30.26,30.07,8,3,17,0.00
2012-4-23,79.0,59.0,38.0,48.0,38.2,30.0,77,50,27,30.20,29.78,8,2,17,0.00
2012-4-24,94.0,73.0,50.0,52.0,43.4,35.0,77,41,13,29.78,29.42,5,2,11,0.00
2012-4-25,84.0,72.8,57.0,49.0,45.2,42.0,64,40,24,29.72,29.43,9,4,18,0.00
2012-4-26,65.0,59.5,52.0,56.0,49.8,44.0,82,71,58,29.90,29.72,7,2,13,0.05
2012-4-27,60.0,52.4,48.0,53.0,49.4,46.0,96,89,73,29.73,29.42,9,4,22,1.66
2012-4-28,65.0,52.8,42.0,47.0,40.8,-99.9,98,70,31,29.96,29.69,9,2,17,0.11
2012-4-29,67.0,56.0,47.0,53.0,46.9,42.0,94,73,41,29.98,29.85,6,2,13,0.01
2012-4-30,74.0,58.5,44.0,58.0,50.5,43.0,98,77,49,29.94,29.63,8,3,20,0.00
2012-5-1,73.0,63.6,55.0,62.0,58.2,54.0,96,83,65,29.63,29.44,8,3,16,0.00
2012-5-2,83.0,66.8,47.0,58.0,48.6,39.0,96,60,21,29.64,29.52,3,1,11,0.00
2012-5-3,83.0,69.3,53.0,62.0,52.0,48.0,83,58,34,29.72,29.59,5,2,15,0.00
2012-5-4,90.0,74.4,63.0,68.0,62.0,55.0,99,71,32,29.70,29.54,6,2,16,0.00
2012-5-5,89.0,71.4,61.0,69.0,61.5,-99.9,96,75,45,29.65,29.50,10,3,19,0.00
2012-5-6,66.0,59.5,50.0,62.0,46.3,36.0,90,64,38,30.08,29.64,14,7,23,0.02
2012-5-7,65.0,55.7,48.0,44.0,37.1,32.0,81,52,29,30.20,30.02,8,3,17,0.01
2012-5-8,67.0,51.7,37.0,39.0,33.1,25.0,87,55,21,30.13,29.99,13,3,24,0.00
2012-5-9,78.0,57.5,35.0,43.0,38.5,32.0,92,55,25,30.08,29.77,9,3,17,0.00
2012-5-10,88.0,71.4,48.0,47.0,41.2,34.0,81,39,15,29.78,29.53,9,3,19,0.00
2012-5-11,71.0,54.4,45.0,46.0,36.9,30.0,72,52,32,30.27,29.60,11,6,21,0.00
2012-5-12,58.0,49.5,43.0,46.0,40.1,-99.9,92,73,56,30.39,30.27,5,2,10,0.05
2012-5-13,70.0,58.2,49.0,48.0,45.1,42.0,89,64,38,30.30,30.10,4,1,13,0.01
2012-5-14,82.0,61.9,36.0,48.0,38.8,31.0,92,52,16,30.12,29.92,7,2,12,0.00
2012-5-15,81.0,64.7,44.0,44.0,38.7,34.0,74,43,20,30.03,29.92,9,3,16,0.00
2012-5-16,83.0,66.6,47.0,46.0,40.2,36.0,69,41,25,30.03,29.75,11,5,24,0.00
2012-5-17,89.0,75.1,61.0,47.0,43.2,40.0,49,34,19,29.76,29.47,13,6,29,0.00
2012-5-18,89.0,74.6,55.0,54.0,48.5,43.0,70,42,23,29.55,29.34,12,5,23,0.00
2012-5-19,75.0,62.6,53.0,54.0,51.3,-99.9,92,70,46,29.96,29.36,14,7,26,0.25
2012-5-20,70.0,58.5,45.0,52.0,46.2,41.0,95,68,35,30.19,29.96,7,3,16,0.33
2012-5-21,81.0,65.2,51.0,49.0,46.7,44.0,81,55,31,30.18,29.81,10,4,24,0.12
2012-5-22,92.0,76.3,62.0,58.0,53.3,49.0,66,47,24,29.83,29.32,15,7,31,0.01
2012-5-23,77.0,70.5,63.0,61.0,54.6,47.0,75,58,41,29.40,29.25,11,6,26,0.00
2012-5-24,71.0,59.9,51.0,54.0,48.3,39.0,95,69,34,29.74,29.34,10,4,22,0.38
2012-5-25,62.0,56.3,51.0,55.0,50.1,43.0,91,80,67,29.86,29.73,5,3,13,0.03
2012-5-26,98.0,75.1,58.0,66.0,57.3,46.0,98,64,18,29.77,29.41,14,6,30,0.01
2012-5-27,84.0,77.5,69.0,62.0,50.5,38.0,64,40,23,29.59,29.37,16,6,33,0.00
2012-5-28,80.0,67.1,50.0,45.0,37.0,30.0,65,36,16,29.79,29.55,13,4,21,0.00
2012-5-29,79.0,65.2,49.0,45.0,40.4,38.0,76,43,24,29.98,29.78,6,2,12,0.00
2012-5-30,68.0,57.2,48.0,56.0,47.2,42.0,95,70,50,29.95,29.71,13,3,25,0.56
2012-5-31,66.0,55.8,48.0,47.0,44.8,42.0,92,69,44,30.05,29.92,7,3,15,0.01
2012-6-1,73.0,57.5,48.0,54.0,47.4,41.0,92,71,50,30.01,29.75,9,3,17,0.05
2012-6-2,86.0,68.5,47.0,55.0,48.9,-99.9,94,57,28,29.85,29.60,8,2,19,0.03
2012-6-3,92.0,78.6,65.0,60.0,56.6,54.0,74,50,28,29.73,29.59,6,2,12,0.00
2012-6-4,90.0,76.9,58.0,60.0,56.2,53.0,86,52,32,29.85,29.73,6,2,14,0.00
2012-6-5,90.0,77.0,58.0,57.0,55.1,52.0,85,50,28,29.82,29.65,8,3,18,0.00
2012-6-6,85.0,74.7,65.0,60.0,53.5,-99.9,72,50,30,29.82,29.70,10,-2,19,0.00
2012-6-7,85.0,73.7,59.0,60.0,54.9,50.0,80,54,31,29.91,29.78,9,4,21,0.00
2012-6-8,88.0,76.2,64.0,58.0,54.1,50.0,69,48,28,29.84,29.57,11,5,25,0.00
2012-6-9,95.0,79.8,66.0,64.0,57.3,-99.9,70,50,30,29.58,29.25,12,8,27,0.00
2012-6-10,83.0,71.9,59.0,65.0,52.3,35.0,79,54,19,29.72,29.27,11,6,26,0.00
2012-6-11,81.0,67.3,52.0,47.0,42.1,35.0,62,42,25,30.03,29.72,10,4,20,0.00
2012-6-12,80.0,64.5,50.0,59.0,49.1,43.0,83,60,35,30.10,29.86,11,4,23,0.25
2012-6-13,95.0,77.3,63.0,62.0,56.5,52.0,71,51,26,29.92,29.50,10,5,21,0.01
2012-6-14,88.0,75.6,69.0,68.0,60.1,-99.9,78,61,48,29.75,29.53,9,-10,20,0.00
2012-6-15,88.0,73.1,63.0,65.0,54.2,-99.9,82,57,35,29.82,29.71,9,-25,20,0.00
2012-6-16,85.0,74.0,65.0,64.0,57.1,-99.9,88,61,28,29.90,29.75,9,4,17,0.01
2012-6-17,97.0,81.6,66.0,66.0,58.3,50.0,89,52,21,29.85,29.30,13,5,28,0.01
2012-6-18,104.0,87.5,69.0,62.0,56.3,48.0,62,37,16,29.35,29.26,11,6,23,0.00
2012-6-19,98.0,85.8,74.0,66.0,63.5,59.0,72,49,29,29.37,29.28,11,7,24,0.00
2012-6-20,84.0,69.9,59.0,65.0,56.3,47.0,94,64,37,29.97,29.35,14,6,29,0.04
2012-6-21,84.0,68.7,48.0,51.0,46.3,42.0,87,50,23,30.12,29.92,5,2,10,0.04
2012-6-22,89.0,75.4,61.0,63.0,52.5,47.0,77,48,26,29.94,29.61,15,7,29,0.09
2012-6-23,90.0,77.4,69.0,72.0,64.8,60.0,86,67,47,29.70,29.45,14,6,32,0.10
2012-6-24,93.0,78.4,68.0,73.0,69.4,66.0,97,77,47,29.76,29.60,6,2,13,0.00
2012-6-25,89.0,79.1,73.0,75.0,72.3,70.0,92,81,60,29.80,29.63,10,4,19,0.00
2012-6-26,108.0,88.7,72.0,74.0,60.5,40.0,92,51,10,29.68,29.35,11,5,21,0.00
2012-6-27,98.0,86.5,71.0,65.0,52.8,39.0,65,33,20,29.75,29.41,12,3,18,0.02
2012-6-28,92.0,80.0,68.0,76.0,66.9,57.0,86,65,49,29.80,29.59,17,2,33,0.06
2012-6-29,95.0,82.8,68.0,73.0,63.8,56.0,83,55,30,29.81,29.55,17,3,33,0.20
2012-6-30,99.0,82.3,70.0,72.0,68.5,53.0,94,68,22,29.68,29.58,8,3,17,0.00
2012-7-1,94.0,80.5,66.0,67.0,61.3,58.0,82,55,31,29.74,29.62,11,4,21,0.00
2012-7-2,98.0,84.4,73.0,68.0,62.5,59.0,74,51,28,29.70,29.58,10,4,21,0.00
2012-7-3,99.0,86.0,70.0,67.0,60.7,52.0,77,46,21,29.67,29.52,9,3,17,0.00
2012-7-4,103.0,86.2,74.0,69.0,61.9,57.0,79,47,24,29.68,29.49,10,4,29,0.30
2012-7-5,98.0,84.7,71.0,69.0,64.5,60.0,79,54,31,29.72,29.62,10,4,21,0.30
2012-7-6,102.0,88.2,75.0,69.0,59.3,52.0,67,40,20,29.80,29.67,9,5,18,0.00
2012-7-7,90.0,78.0,67.0,68.0,65.0,60.0,83,66,47,29.98,29.80,8,3,18,0.00
2012-7-8,79.0,72.3,66.0,67.0,64.2,61.0,92,77,54,30.07,29.97,4,1,9,0.23
2012-7-9,87.0,74.7,61.0,63.0,57.8,50.0,86,59,30,30.08,29.97,6,2,15,0.17
2012-7-10,90.0,73.1,60.0,64.0,60.2,56.0,90,68,33,30.05,29.93,8,2,22,0.02
2012-7-11,89.0,74.4,61.0,64.0,59.8,56.0,93,65,35,30.01,29.87,9,3,16,0.02
2012-7-12,94.0,77.1,64.0,63.0,58.8,54.0,80,57,28,29.90,29.73,14,4,29,0.09
2012-7-13,95.0,78.2,61.0,69.0,61.7,58.0,92,61,32,29.88,29.79,5,1,12,0.09
2012-7-14,94.0,80.0,65.0,72.0,66.3,62.0,91,66,39,29.87,29.75,5,2,14,0.00
2012-7-15,99.0,83.3,67.0,68.0,61.6,54.0,86,54,23,29.82,29.63,11,4,25,0.00
2012-7-16,96.0,84.1,74.0,67.0,59.6,54.0,71,45,25,29.71,29.55,8,4,19,0.00
2012-7-17,97.0,82.0,67.0,69.0,63.0,60.0,80,55,32,29.66,29.56,7,2,15,0.00
2012-7-18,99.0,81.1,63.0,67.0,61.5,53.0,86,55,26,29.78,29.64,18,2,28,0.01
2012-7-19,99.0,80.3,62.0,73.0,64.1,57.0,89,61,26,29.89,29.77,9,3,15,0.01
2012-7-20,99.0,84.8,70.0,70.0,64.4,59.0,84,54,27,29.91,29.78,8,4,17,0.00
2012-7-21,102.0,87.9,75.0,67.0,58.9,56.0,66,40,23,29.84,29.69,8,4,18,0.00
2012-7-22,102.0,89.1,69.0,59.0,53.2,48.0,61,32,19,29.82,29.71,9,4,18,0.00
2012-7-23,101.0,89.1,75.0,62.0,57.4,53.0,53,36,24,29.80,29.67,9,4,19,0.00
2012-7-24,101.0,86.3,73.0,73.0,62.4,55.0,73,47,22,29.71,29.47,8,3,16,0.00
2012-7-25,92.0,82.7,70.0,69.0,62.1,55.0,67,51,39,29.64,29.48,8,4,17,0.01
2012-7-26,95.0,78.7,64.0,62.0,57.0,51.0,82,53,23,29.83,29.64,10,2,17,0.03
2012-7-27,89.0,76.2,61.0,63.0,57.9,53.0,79,55,36,29.94,29.83,9,3,16,0.03
2012-7-28,96.0,80.5,65.0,73.0,63.4,59.0,84,59,35,29.88,29.72,7,2,16,0.00
2012-7-29,95.0,80.5,63.0,70.0,61.5,55.0,90,57,27,29.83,29.74,7,2,17,0.01
2012-7-30,92.0,78.2,66.0,70.0,65.4,59.0,93,68,37,29.88,29.78,9,2,18,0.03
2012-7-31,95.0,81.8,68.0,69.0,65.9,59.0,91,62,31,29.84,29.71,7,2,14,0.01
2012-8-1,94.0,81.5,68.0,73.0,66.9,63.0,92,64,39,29.82,29.60,15,4,29,2.62
2012-8-2,91.0,78.2,67.0,71.0,67.1,58.0,91,71,40,29.73,29.59,13,2,26,0.09
2012-8-3,94.0,81.7,69.0,70.0,66.2,58.0,91,63,36,29.71,29.51,12,4,27,0.01
2012-8-4,85.0,71.2,59.0,63.0,52.2,43.0,86,56,23,30.03,29.66,11,4,25,0.08
2012-8-5,90.0,71.7,54.0,57.0,52.5,49.0,89,56,26,30.16,29.95,7,2,17,0.01
2012-8-6,98.0,79.9,62.0,75.0,59.7,53.0,76,53,27,29.99,29.74,14,4,27,0.07
2012-8-7,89.0,76.6,67.0,71.0,65.0,61.0,85,68,54,29.87,29.76,5,1,11,0.07
2012-8-8,98.0,79.0,61.0,65.0,57.6,50.0,91,56,20,29.90,29.79,7,3,13,0.01
2012-8-9,85.0,71.3,56.0,62.0,56.9,51.0,96,65,31,30.00,29.89,5,2,11,0.00
2012-8-10,84.0,70.3,57.0,63.0,57.9,53.0,89,67,40,30.02,29.88,6,2,12,0.00
2012-8-11,82.0,70.3,60.0,61.0,54.4,-99.9,84,60,38,29.92,29.71,11,4,21,0.00
2012-8-12,85.0,72.1,59.0,60.0,56.1,49.0,91,61,30,29.98,29.74,12,6,23,0.01
2012-8-13,80.0,65.9,51.0,57.0,52.8,49.0,95,67,38,30.06,29.91,6,2,11,0.01
2012-8-14,84.0,72.0,61.0,63.0,58.9,54.0,83,65,49,29.93,29.67,11,4,20,0.00
2012-8-15,97.0,74.4,64.0,65.0,59.2,51.0,85,63,22,29.86,29.55,11,4,23,0.00
2012-8-16,71.0,64.4,56.0,53.0,46.9,39.0,76,55,31,30.07,29.86,9,4,15,0.00
2012-8-17,79.0,64.6,51.0,54.0,47.6,43.0,86,58,32,30.08,29.90,5,2,14,0.00
2012-8-18,80.0,67.7,55.0,52.0,46.0,39.0,74,49,23,29.96,29.84,11,4,21,0.00
2012-8-19,82.0,64.8,46.0,52.0,46.6,43.0,93,58,27,30.04,29.89,5,2,10,0.00
2012-8-20,87.0,69.9,51.0,57.0,48.1,42.0,79,49,24,29.95,29.79,5,1,11,0.00
2012-8-21,92.0,75.4,58.0,58.0,53.5,48.0,80,50,25,29.87,29.76,8,2,16,0.00
2012-8-22,91.0,78.4,66.0,61.0,54.7,47.0,73,46,28,29.79,29.65,10,4,21,0.00
2012-8-23,77.0,72.1,68.0,69.0,64.3,57.0,89,77,51,29.74,29.67,8,2,14,0.05
2012-8-24,73.0,69.2,67.0,67.0,65.5,64.0,95,88,79,29.72,29.64,8,3,12,0.01
2012-8-25,83.0,73.8,67.0,68.0,65.4,59.0,96,77,51,29.79,29.62,8,1,15,0.00
2012-8-26,88.0,72.9,60.0,68.0,63.9,59.0,99,77,44,29.96,29.79,6,1,13,0.01
2012-8-27,94.0,78.9,66.0,68.0,64.3,59.0,93,65,31,29.99,29.86,10,3,19,0.01
2012-8-28,99.0,83.4,69.0,63.0,58.0,49.0,74,47,20,29.92,29.73,9,5,20,0.00
2012-8-29,100.0,84.8,69.0,49.0,43.3,37.0,40,25,12,29.78,29.63,10,5,22,0.00
2012-8-30,101.0,84.7,67.0,49.0,44.8,37.0,48,28,11,29.75,29.64,9,4,17,0.00
2012-8-31,95.0,77.0,58.0,58.0,53.0,43.0,81,48,17,29.85,29.75,7,1,12,0.00
2012-9-1,95.0,77.3,60.0,61.0,55.3,48.0,91,53,20,29.90,29.73,9,2,16,0.00
2012-9-2,94.0,81.1,71.0,62.0,56.5,50.0,71,47,23,29.78,29.70,9,3,15,0.00
2012-9-3,94.0,78.6,66.0,66.0,58.6,50.0,73,52,32,29.78,29.66,6,1,11,0.00
2012-9-4,98.0,76.6,55.0,62.0,52.0,37.0,91,52,12,29.77,29.58,7,2,15,0.00
2012-9-5,83.0,69.8,55.0,56.0,46.6,41.0,80,47,24,29.88,29.65,8,3,14,0.00
2012-9-6,96.0,73.1,55.0,57.0,44.3,24.0,74,43,8,29.87,29.65,10,3,18,0.00
2012-9-7,73.0,63.8,53.0,52.0,47.4,42.0,77,56,36,30.12,29.75,12,4,21,0.00
2012-9-8,84.0,62.7,41.0,47.0,39.3,31.0,89,51,15,30.19,29.98,9,3,17,0.00
2012-9-9,81.0,63.8,43.0,45.0,40.7,38.0,84,47,22,30.17,29.96,7,2,15,0.00
2012-9-10,95.0,73.9,55.0,46.0,41.9,37.0,62,37,14,29.96,29.65,11,5,24,0.00
2012-9-11,93.0,78.4,66.0,54.0,46.5,41.0,53,33,22,29.69,29.55,10,4,22,0.00
2012-9-12,72.0,61.3,52.0,52.0,43.8,34.0,91,57,32,30.23,29.65,11,6,28,0.03
2012-9-13,73.0,57.2,44.0,50.0,42.2,35.0,96,65,27,30.40,30.23,6,2,11,0.03
2012-9-14,82.0,64.6,48.0,48.0,40.6,33.0,73,45,18,30.32,30.11,6,2,13,0.01
2012-9-15,82.0,67.2,53.0,42.0,39.1,37.0,60,38,20,30.14,29.91,9,3,17,0.01
2012-9-16,85.0,65.5,48.0,52.0,45.7,36.0,91,55,18,29.94,29.72,8,3,20,0.00
2012-9-17,69.0,58.2,49.0,45.0,40.3,35.0,79,54,29,30.04,29.80,15,5,25,0.00
2012-9-18,82.0,58.2,38.0,47.0,38.6,33.0,86,55,20,30.06,29.80,8,1,15,0.00
2012-9-19,82.0,62.5,43.0,46.0,37.9,32.0,83,48,19,29.98,29.80,11,3,20,0.00
2012-9-20,82.0,60.3,39.0,42.0,35.4,32.0,80,45,19,30.01,29.80,8,2,14,0.00
2012-9-21,79.0,59.9,43.0,40.0,30.6,-99.9,73,40,21,29.95,29.85,10,-46,20,0.00
2012-9-22,72.0,56.6,39.0,38.0,34.5,-99.9,78,48,26,30.20,29.96,5,1,11,0.00
2012-9-23,72.0,55.1,40.0,35.0,31.6,26.0,71,45,21,30.21,30.05,9,3,19,0.00
2012-9-24,72.0,58.9,44.0,52.0,42.9,33.0,84,56,42,30.06,29.76,6,1,10,0.00
2012-9-25,76.0,59.8,45.0,54.0,48.8,43.0,93,70,40,29.84,29.78,4,0,7,0.00
2012-9-26,79.0,61.7,46.0,48.0,42.2,36.0,87,54,22,30.07,29.84,5,1,11,0.00
2012-9-27,77.0,59.2,43.0,54.0,43.7,38.0,90,61,27,30.11,30.02,4,1,11,0.00
2012-9-28,77.0,61.3,45.0,48.0,38.7,31.0,80,49,19,30.11,30.00,4,1,9,0.00
2012-9-29,76.0,59.5,42.0,52.0,41.9,36.0,82,56,29,30.08,29.93,7,1,14,0.00
2012-9-30,81.0,63.3,49.0,57.0,50.8,43.0,91,67,38,29.97,29.77,6,1,18,0.05
2012-10-1,68.0,59.3,43.0,53.0,43.8,33.0,92,60,29,30.05,29.87,12,5,24,0.07
2012-10-2,79.0,55.1,32.0,38.0,33.0,28.0,87,51,19,30.01,29.74,7,2,16,0.01
2012-10-3,87.0,65.5,47.0,46.0,39.7,34.0,68,43,17,30.02,29.54,15,4,25,0.00
2012-10-4,54.0,45.4,38.0,36.0,30.7,27.0,76,58,38,30.32,30.01,11,6,25,0.00
2012-10-5,42.0,38.0,32.0,36.0,31.7,26.0,89,78,68,30.38,30.28,4,1,9,0.02
2012-10-6,40.0,35.4,32.0,36.0,32.0,27.0,94,88,64,30.43,30.32,6,2,10,0.06
2012-10-7,56.0,37.1,21.0,35.0,27.3,19.0,96,73,31,30.36,30.01,9,3,19,0.06
2012-10-8,73.0,51.6,31.0,33.0,28.0,24.0,81,45,17,30.02,29.73,7,2,13,0.01
2012-10-9,56.0,45.6,34.0,40.0,30.7,25.0,91,59,33,30.18,29.77,11,4,20,0.00
2012-10-10,66.0,46.3,25.0,39.0,30.5,21.0,87,58,34,30.21,29.95,12,3,21,0.00
2012-10-11,56.0,48.0,39.0,37.0,32.9,25.0,79,56,42,30.29,29.89,10,3,20,0.00
2012-10-12,48.0,40.4,32.0,41.0,30.2,24.0,81,67,53,30.31,29.89,9,2,17,0.00
2012-10-13,79.0,60.4,47.0,50.0,42.9,28.0,96,60,16,29.90,29.53,9,3,17,0.00
2012-10-14,74.0,60.7,47.0,42.0,35.9,33.0,66,41,24,29.95,29.70,14,6,25,0.00
2012-10-15,82.0,58.2,36.0,41.0,35.1,30.0,83,49,19,29.95,29.63,9,2,16,0.00
2012-10-16,77.0,64.3,48.0,44.0,38.4,34.0,69,40,25,29.64,29.28,11,4,20,0.00
2012-10-17,70.0,55.7,44.0,48.0,29.7,14.0,69,40,19,29.72,29.30,20,10,34,0.00
2012-10-18,58.0,49.3,43.0,27.0,22.7,16.0,45,35,29,29.85,29.70,24,16,46,0.00
2012-10-19,64.0,49.2,34.0,23.0,14.8,0.0,51,28,8,29.91,29.73,14,6,24,0.00
2012-10-20,82.0,55.6,31.0,33.0,24.2,13.0,61,33,15,29.73,29.53,6,2,14,0.00
2012-10-21,73.0,56.1,38.0,41.0,36.1,29.0,72,49,30,29.76,29.55,7,2,13,0.00
2012-10-22,58.0,51.2,44.0,48.0,44.5,39.0,90,78,63,29.83,29.72,7,2,12,0.00
2012-10-23,66.0,53.2,47.0,52.0,49.0,45.0,97,86,61,29.75,29.60,5,1,9,0.00
2012-10-24,58.0,49.3,40.0,47.0,40.9,33.0,92,74,52,29.84,29.70,11,5,21,0.00
2012-10-25,41.0,34.8,30.0,34.0,30.0,26.0,94,83,64,30.41,29.83,11,6,20,0.23
2012-10-26,37.0,33.0,29.0,28.0,25.9,24.0,86,75,66,30.58,30.39,7,3,14,0.01
2012-10-27,49.0,35.3,28.0,31.0,26.8,24.0,86,73,48,30.39,30.14,9,3,19,0.00
2012-10-28,52.0,37.0,22.0,33.0,27.4,19.0,91,71,46,30.22,30.06,6,2,16,0.00
2012-10-29,74.0,51.5,31.0,42.0,34.1,26.0,84,55,27,30.07,29.92,7,2,16,0.00
2012-10-30,71.0,50.2,33.0,45.0,37.3,30.0,89,64,35,29.96,29.89,5,1,13,0.00
2012-10-31,73.0,49.6,31.0,42.0,35.2,28.0,91,63,27,30.00,29.91,4,1,9,0.00
2012-11-1,65.0,48.7,34.0,44.0,37.6,30.0,87,67,43,29.99,29.83,5,2,13,0.00
2012-11-2,52.0,42.6,34.0,41.0,36.8,30.0,96,81,59,30.11,29.80,10,2,18,0.00
2012-11-3,61.0,41.7,27.0,42.0,33.7,25.0,95,76,46,30.23,30.11,4,1,9,0.00
2012-11-4,61.0,45.9,33.0,41.0,35.4,29.0,90,69,36,30.14,29.98,7,2,16,0.00
2012-11-5,55.0,45.6,39.0,39.0,36.2,33.0,88,71,46,30.18,29.97,9,3,17,0.00
2012-11-6,60.0,46.5,34.0,40.0,28.3,21.0,91,54,25,30.16,29.97,13,4,25,0.00
2012-11-7,64.0,44.7,27.0,30.0,25.6,20.0,79,51,28,30.14,29.86,8,3,19,0.00
2012-11-8,63.0,47.5,30.0,38.0,31.6,24.0,78,56,38,29.88,29.79,9,2,14,0.00
2012-11-9,50.0,39.2,27.0,40.0,34.7,24.0,94,85,67,29.83,29.60,6,1,11,0.00
2012-11-10,54.0,39.0,25.0,44.0,35.7,18.0,98,89,67,29.85,29.42,14,4,25,0.08
2012-11-11,34.0,23.8,15.0,18.0,12.9,9.0,82,64,38,30.29,29.85,11,6,18,0.08
2012-11-12,46.0,29.0,15.0,19.0,13.1,8.0,82,56,22,30.41,30.29,13,4,20,0.02
2012-11-13,54.0,34.9,20.0,25.0,17.6,11.0,77,53,23,30.38,30.22,2,0,7,0.01
2012-11-14,58.0,38.6,21.0,33.0,24.5,-99.9,91,62,34,30.32,30.11,7,2,16,0.00
2012-11-15,56.0,43.8,30.0,30.0,26.4,22.0,74,52,34,30.41,30.13,8,2,13,0.00
2012-11-16,57.0,40.3,23.0,37.0,29.0,20.0,90,67,39,30.41,30.14,7,2,17,0.00
2012-11-17,58.0,44.7,35.0,39.0,34.8,28.0,87,70,45,30.14,30.00,7,2,14,0.00
2012-11-18,56.0,40.0,30.0,39.0,32.0,26.0,91,74,49,30.03,29.91,6,1,13,0.00
2012-11-19,64.0,43.7,30.0,37.0,31.1,26.0,92,66,31,30.18,29.98,8,2,17,0.00
2012-11-20,69.0,46.9,24.0,35.0,29.0,20.0,86,56,26,30.21,30.02,11,3,20,0.00
2012-11-21,66.0,49.2,34.0,33.0,28.5,22.0,78,48,22,30.03,29.71,5,1,13,0.00
2012-11-22,53.0,41.3,32.0,38.0,26.8,20.0,69,57,39,30.40,29.72,14,5,26,0.00
2012-11-23,43.0,30.3,18.0,23.0,15.7,11.0,75,56,36,30.59,30.32,9,3,16,0.00
2012-11-24,62.0,40.7,25.0,27.0,21.4,16.0,69,48,26,30.32,29.83,7,1,13,0.00
2012-11-25,50.0,37.4,26.0,34.0,24.6,19.0,79,61,44,30.11,29.91,4,1,9,0.00
2012-11-26,35.0,30.3,23.0,28.0,25.0,20.0,91,81,62,30.45,30.11,6,2,17,0.01
2012-11-27,49.0,31.3,20.0,30.0,22.8,15.0,90,73,41,30.42,30.18,7,3,14,0.01
2012-11-28,50.0,31.1,13.0,30.0,21.5,9.0,90,70,45,30.36,30.07,8,2,15,0.00
2012-11-29,69.0,40.3,20.0,29.0,23.1,16.0,88,58,15,30.07,29.87,6,1,12,0.00
2012-11-30,57.0,38.7,25.0,34.0,27.6,20.0,87,67,37,30.06,29.88,8,2,15,0.00
2012-12-1,71.0,45.1,29.0,36.0,30.8,24.0,88,62,27,29.91,29.76,9,2,18,0.00
2012-12-2,69.0,46.0,28.0,36.0,30.1,23.0,84,59,23,29.96,29.58,9,3,23,0.00
2012-12-3,57.0,43.0,26.0,41.0,27.0,14.0,88,57,24,30.15,29.52,14,4,25,0.00
2012-12-4,57.0,37.7,23.0,23.0,18.2,14.0,69,48,23,30.34,30.15,7,2,11,0.00
2012-12-5,60.0,46.8,32.0,32.0,24.5,17.0,60,42,33,30.22,29.75,7,2,17,0.00
2012-12-6,52.0,40.3,24.0,35.0,20.8,-99.9,77,49,28,29.99,29.75,10,3,22,0.00
2012-12-7,47.0,32.4,22.0,26.0,22.5,15.0,85,68,42,30.03,29.88,9,2,16,0.00
2012-12-8,44.0,31.0,16.0,29.0,22.9,13.0,89,73,46,30.04,29.75,9,3,21,0.00
2012-12-9,36.0,18.1,5.0,28.0,7.4,0.0,79,63,53,30.35,29.89,18,10,30,0.00
2012-12-10,41.0,18.3,-2.0,18.0,5.9,-7.0,84,62,31,30.32,29.97,12,2,20,0.00
2012-12-11,44.0,29.6,12.0,20.0,14.4,8.0,89,57,29,30.08,29.91,10,4,17,0.00
2012-12-12,53.0,37.7,23.0,17.0,14.8,11.0,63,41,23,29.91,29.80,9,3,18,0.00
2012-12-13,53.0,34.3,23.0,23.0,17.7,13.0,72,52,30,30.07,29.88,4,1,8,0.00
2012-12-14,40.0,28.0,13.0,36.0,21.1,9.0,95,76,55,30.01,29.53,5,1,12,0.08
2012-12-15,46.0,37.4,28.0,37.0,31.1,24.0,97,79,52,29.76,29.51,9,4,17,0.09
2012-12-16,45.0,33.5,24.0,32.0,25.3,20.0,89,73,40,29.79,29.71,4,1,11,0.00
2012-12-17,48.0,29.7,16.0,30.0,22.4,13.0,89,76,41,29.77,29.52,7,1,12,0.00
2012-12-18,50.0,41.9,27.0,29.0,20.4,16.0,85,43,28,29.77,29.53,17,6,29,0.00
2012-12-19,36.0,29.2,24.0,31.0,24.5,19.0,95,83,59,30.06,29.73,14,6,30,0.00
2012-12-20,32.0,19.1,10.0,21.0,11.1,4.0,87,72,49,30.32,30.06,11,5,20,0.00
2012-12-21,43.0,23.0,10.0,28.0,15.7,6.0,89,74,47,30.35,30.16,3,0,6,0.00
2012-12-22,41.0,24.6,10.0,30.0,18.6,7.0,91,78,54,30.16,30.02,8,2,12,0.00
2012-12-23,32.0,18.8,7.0,24.0,14.3,4.0,90,83,70,30.16,29.98,3,0,6,0.00
2012-12-24,21.0,15.4,11.0,13.0,10.0,7.0,88,79,68,30.31,30.09,5,1,11,0.00
2012-12-25,15.0,10.5,0.0,9.0,5.9,-3.0,88,81,75,30.55,30.31,6,3,12,0.00
2012-12-26,15.0,6.3,-4.0,10.0,2.5,-8.0,87,84,75,30.46,30.13,5,1,10,0.00
2012-12-27,21.0,15.0,4.0,16.0,11.0,1.0,89,84,77,30.13,29.97,6,2,10,0.01
2012-12-28,20.0,9.1,0.0,13.0,5.0,-3.0,89,83,72,30.27,30.11,7,2,12,0.01
2012-12-29,35.0,17.9,5.0,20.0,11.7,2.0,90,77,51,30.38,30.25,8,2,11,0.01
2012-12-30,35.0,25.7,17.0,23.0,17.8,13.0,85,72,57,30.25,30.02,8,2,16,0.01
2012-12-31,25.0,22.5,18.0,22.0,19.6,14.0,92,88,82,30.27,30.16,4,1,9,0.00
2013-1-1,33.0,20.3,10.0,24.0,16.2,8.0,94,84,63,30.32,30.18,7,1,12,0.00